createdAt,value
2022-11-27T00:01:26.102Z,2.80
2022-11-27T00:03:53.944Z,2.80
2022-11-27T00:06:22.869Z,2.90
2022-11-27T00:08:51.881Z,2.90
2022-11-27T00:11:23.101Z,3.00
2022-11-27T00:13:52.323Z,3.00
2022-11-27T00:16:19.942Z,2.80
2022-11-27T00:18:46.948Z,2.90
2022-11-27T00:21:26.680Z,2.80
2022-11-27T00:23:54.002Z,2.80
2022-11-27T00:26:23.194Z,2.80
2022-11-27T00:28:54.495Z,2.90
2022-11-27T00:31:27.192Z,2.90
2022-11-27T00:34:00.400Z,3.00
2022-11-27T00:36:28.011Z,2.70
2022-11-27T00:38:54.714Z,2.80
2022-11-27T00:41:23.201Z,2.70
2022-11-27T00:43:52.516Z,2.70
2022-11-27T00:46:28.332Z,2.70
2022-11-27T00:48:56.364Z,2.70
2022-11-27T00:51:23.355Z,2.60
2022-11-27T00:53:50.079Z,2.70
2022-11-27T00:56:20.886Z,2.70
2022-11-27T00:58:47.704Z,2.70
2022-11-27T01:01:22.433Z,2.80
2022-11-27T01:03:49.242Z,2.70
2022-11-27T01:06:19.234Z,2.70
2022-11-27T01:08:48.803Z,2.70
2022-11-27T01:11:17.363Z,2.60
2022-11-27T01:13:44.294Z,2.70
2022-11-27T01:16:13.308Z,2.60
2022-11-27T01:18:43.342Z,2.60
2022-11-27T01:21:10.431Z,2.60
2022-11-27T01:23:37.199Z,2.50
2022-11-27T01:26:06.099Z,2.60
2022-11-27T01:28:33.331Z,2.60
2022-11-27T01:31:04.968Z,2.60
2022-11-27T01:33:31.758Z,2.70
2022-11-27T01:36:02.518Z,2.70
2022-11-27T01:38:32.422Z,2.60
2022-11-27T01:41:00.464Z,2.60
2022-11-27T01:43:42.330Z,2.40
2022-11-27T01:46:42.687Z,2.50
2022-11-27T01:49:12.470Z,2.40
2022-11-27T01:52:11.568Z,2.60
2022-11-27T01:54:47.364Z,2.40
2022-11-27T01:57:17.065Z,2.50
2022-11-27T01:59:43.999Z,2.50
2022-11-27T02:02:10.809Z,2.60
2022-11-27T02:04:37.753Z,2.70
2022-11-27T02:07:04.597Z,2.70
2022-11-27T02:09:31.383Z,2.50
2022-11-27T02:12:25.151Z,2.60
2022-11-27T02:15:03.264Z,2.60
2022-11-27T02:17:45.162Z,2.60
2022-11-27T02:20:59.119Z,2.60
2022-11-27T02:23:55.602Z,2.70
2022-11-27T02:26:42.931Z,2.70
2022-11-27T02:29:12.710Z,2.70
2022-11-27T02:32:01.038Z,2.50
2022-11-27T02:34:28.491Z,2.50
2022-11-27T02:37:00.662Z,2.50
2022-11-27T02:39:32.413Z,2.40
2022-11-27T02:42:11.882Z,2.40
2022-11-27T02:44:41.880Z,2.40
2022-11-27T02:47:08.785Z,2.40
2022-11-27T02:49:36.146Z,2.50
2022-11-27T02:52:05.014Z,2.60
2022-11-27T02:54:33.941Z,2.60
2022-11-27T02:57:04.517Z,2.70
2022-11-27T02:59:31.744Z,2.70
2022-11-27T03:02:01.941Z,2.60
2022-11-27T03:04:34.553Z,2.60
2022-11-27T03:07:06.921Z,2.50
2022-11-27T03:09:40.347Z,2.50
2022-11-27T03:12:09.718Z,2.30
2022-11-27T03:14:38.893Z,2.40
2022-11-27T03:17:11.152Z,2.40
2022-11-27T03:19:46.116Z,2.50
2022-11-27T03:22:12.843Z,2.60
2022-11-27T03:24:41.977Z,2.60
2022-11-27T03:27:11.390Z,2.40
2022-11-27T03:29:58.885Z,2.40
2022-11-27T03:32:26.542Z,2.30
2022-11-27T03:34:55.790Z,2.30
2022-11-27T03:37:22.667Z,2.40
2022-11-27T03:39:49.626Z,2.40
2022-11-27T03:42:31.883Z,2.30
2022-11-27T03:45:08.619Z,2.10
2022-11-27T03:47:48.831Z,2.10
2022-11-27T03:50:42.424Z,2.10
2022-11-27T03:53:27.948Z,2.20
2022-11-27T03:56:37.578Z,2.20
2022-11-27T03:59:20.624Z,2.20
2022-11-27T04:01:47.651Z,2.30
2022-11-27T04:04:14.597Z,2.20
2022-11-27T04:06:41.388Z,2.20
2022-11-27T04:09:12.777Z,2.30
2022-11-27T04:11:39.469Z,2.30
2022-11-27T04:14:08.221Z,2.20
2022-11-27T04:16:37.143Z,2.20
2022-11-27T04:19:04.278Z,2.20
2022-11-27T04:21:33.456Z,2.10
2022-11-27T04:24:02.625Z,2.10
2022-11-27T04:26:31.489Z,2.00
2022-11-27T04:28:58.175Z,2.10
2022-11-27T04:31:24.981Z,2.10
2022-11-27T04:33:51.726Z,2.30
2022-11-27T04:36:18.445Z,2.30
2022-11-27T04:38:47.932Z,2.40
2022-11-27T04:41:14.640Z,2.40
2022-11-27T04:43:41.371Z,2.50
2022-11-27T04:46:08.132Z,2.50
2022-11-27T04:48:34.905Z,2.60
2022-11-27T04:51:01.640Z,2.60
2022-11-27T04:53:28.333Z,2.60
2022-11-27T04:55:57.296Z,2.60
2022-11-27T04:58:26.568Z,2.60
2022-11-27T05:00:53.399Z,2.60
2022-11-27T05:03:20.247Z,2.60
2022-11-27T05:05:56.678Z,2.50
2022-11-27T05:08:24.256Z,2.60
2022-11-27T05:11:03.834Z,2.60
2022-11-27T05:13:30.747Z,2.50
2022-11-27T05:15:59.815Z,2.50
2022-11-27T05:18:26.602Z,2.50
2022-11-27T05:21:17.411Z,2.40
2022-11-27T05:23:44.110Z,2.50
2022-11-27T05:26:13.142Z,2.50
2022-11-27T05:28:42.001Z,2.60
2022-11-27T05:31:09.114Z,2.50
2022-11-27T05:33:35.866Z,2.60
2022-11-27T05:36:02.554Z,2.60
2022-11-27T05:38:29.277Z,2.50
2022-11-27T05:40:55.963Z,2.40
2022-11-27T05:43:27.403Z,2.40
2022-11-27T05:45:54.108Z,2.40
2022-11-27T05:48:23.002Z,2.40
2022-11-27T05:50:49.737Z,2.40
2022-11-27T05:53:16.424Z,2.40
2022-11-27T05:55:43.186Z,2.30
2022-11-27T05:58:09.899Z,2.40
2022-11-27T06:00:36.667Z,2.40
2022-11-27T06:03:07.819Z,2.50
2022-11-27T06:05:38.118Z,2.50
2022-11-27T06:08:04.848Z,2.50
2022-11-27T06:10:31.529Z,2.50
2022-11-27T06:12:58.233Z,2.60
2022-11-27T06:15:24.998Z,2.70
2022-11-27T06:17:51.768Z,2.60
2022-11-27T06:20:20.300Z,2.60
2022-11-27T06:22:47.108Z,2.60
2022-11-27T06:25:18.526Z,2.70
2022-11-27T06:27:47.442Z,2.70
2022-11-27T06:30:14.367Z,2.70
2022-11-27T06:32:43.590Z,2.80
2022-11-27T06:35:12.680Z,2.80
2022-11-27T06:37:44.273Z,2.80
2022-11-27T06:40:13.559Z,2.80
2022-11-27T06:42:40.282Z,2.80
2022-11-27T06:45:07.572Z,2.90
2022-11-27T06:47:34.290Z,3.00
2022-11-27T06:50:01.021Z,3.00
2022-11-27T06:52:35.885Z,3.00
2022-11-27T06:55:07.173Z,3.10
2022-11-27T06:57:33.910Z,3.00
2022-11-27T07:00:00.598Z,2.90
2022-11-27T07:02:27.389Z,2.80
2022-11-27T07:04:54.224Z,2.80
2022-11-27T07:07:21.018Z,2.80
2022-11-27T07:09:47.813Z,2.90
2022-11-27T07:12:16.688Z,2.90
2022-11-27T07:14:43.482Z,3.00
2022-11-27T07:17:12.648Z,3.10
2022-11-27T07:19:41.613Z,3.10
2022-11-27T07:22:10.938Z,3.10
2022-11-27T07:24:40.122Z,3.10
2022-11-27T07:27:07.177Z,3.10
2022-11-27T07:29:33.883Z,3.10
2022-11-27T07:32:00.651Z,3.20
2022-11-27T07:34:29.835Z,3.20
2022-11-27T07:36:58.997Z,3.20
2022-11-27T07:39:46.626Z,3.20
2022-11-27T07:42:36.874Z,3.20
2022-11-27T07:45:01.389Z,3.20
2022-11-27T07:47:31.820Z,3.20
2022-11-27T07:50:00.395Z,3.30
2022-11-27T07:52:27.433Z,3.30
2022-11-27T07:54:56.414Z,3.30
2022-11-27T07:57:23.102Z,3.30
2022-11-27T07:59:49.826Z,3.30
2022-11-27T08:02:16.645Z,3.30
2022-11-27T08:04:43.835Z,3.40
2022-11-27T08:07:10.924Z,3.30
2022-11-27T08:09:38.067Z,3.30
2022-11-27T08:12:05.024Z,3.30
2022-11-27T08:14:31.729Z,3.30
2022-11-27T08:16:58.461Z,3.30
2022-11-27T08:19:25.241Z,3.30
2022-11-27T08:21:54.193Z,3.30
2022-11-27T08:24:20.892Z,3.30
2022-11-27T08:26:47.582Z,3.40
2022-11-27T08:29:16.569Z,3.40
2022-11-27T08:31:43.338Z,3.50
2022-11-27T08:34:12.512Z,3.50
2022-11-27T08:36:39.197Z,3.60
2022-11-27T08:39:06.168Z,3.60
2022-11-27T08:41:32.933Z,3.60
2022-11-27T08:44:04.481Z,3.70
2022-11-27T08:46:33.482Z,3.70
2022-11-27T08:49:02.437Z,3.70
2022-11-27T08:51:31.317Z,3.80
2022-11-27T08:53:58.045Z,3.60
2022-11-27T08:56:27.405Z,3.60
2022-11-27T08:58:54.122Z,3.50
2022-11-27T09:01:31.171Z,3.60
2022-11-27T09:04:00.097Z,3.60
2022-11-27T09:06:33.276Z,3.60
2022-11-27T09:09:00.732Z,3.60
2022-11-27T09:11:27.955Z,3.50
2022-11-27T09:13:56.948Z,3.50
2022-11-27T09:16:23.673Z,3.30
2022-11-27T09:18:54.215Z,3.40
2022-11-27T09:21:22.189Z,3.30
2022-11-27T09:23:54.141Z,3.30
2022-11-27T09:26:20.946Z,3.40
2022-11-27T09:28:47.948Z,3.50
2022-11-27T09:31:15.094Z,3.60
2022-11-27T09:33:44.507Z,3.70
2022-11-27T09:36:24.725Z,3.80
2022-11-27T09:38:51.776Z,3.70
2022-11-27T09:41:43.568Z,3.90
2022-11-27T09:44:18.176Z,3.80
2022-11-27T09:46:45.374Z,3.80
2022-11-27T09:49:20.050Z,3.90
2022-11-27T09:52:11.917Z,3.90
2022-11-27T09:55:03.282Z,4.00
2022-11-27T09:57:33.102Z,4.00
2022-11-27T10:00:28.016Z,4.00
2022-11-27T10:02:54.849Z,4.00
2022-11-27T10:05:31.080Z,3.90
2022-11-27T10:08:08.088Z,3.90
2022-11-27T10:10:57.084Z,3.90
2022-11-27T10:13:50.257Z,3.90
2022-11-27T10:16:28.879Z,4.00
2022-11-27T10:19:14.722Z,4.00
2022-11-27T10:21:47.134Z,4.10
2022-11-27T10:24:16.668Z,4.10
2022-11-27T10:26:47.741Z,4.10
2022-11-27T10:29:33.203Z,4.20
2022-11-27T10:32:05.446Z,4.20
2022-11-27T10:34:32.264Z,4.30
2022-11-27T10:36:59.008Z,4.20
2022-11-27T10:39:32.443Z,4.20
2022-11-27T10:42:10.296Z,4.20
2022-11-27T10:44:45.072Z,4.10
2022-11-27T10:47:14.651Z,4.20
2022-11-27T10:49:41.884Z,4.20
2022-11-27T10:52:16.123Z,4.30
2022-11-27T10:54:45.280Z,4.30
2022-11-27T10:57:33.926Z,4.40
2022-11-27T11:00:20.448Z,4.40
2022-11-27T11:02:47.308Z,4.40
2022-11-27T11:05:37.717Z,4.30
2022-11-27T11:08:18.110Z,4.30
2022-11-27T11:10:51.788Z,4.10
2022-11-27T11:13:27.321Z,4.20
2022-11-27T11:15:56.233Z,4.40
2022-11-27T11:18:46.510Z,4.30
2022-11-27T11:21:15.744Z,4.40
2022-11-27T11:23:42.534Z,4.50
2022-11-27T11:26:21.682Z,4.50
2022-11-27T11:28:53.354Z,4.60
2022-11-27T11:31:29.025Z,4.70
2022-11-27T11:34:02.348Z,4.70
2022-11-27T11:36:29.150Z,4.60
2022-11-27T11:38:58.045Z,4.70
2022-11-27T11:41:26.959Z,4.70
2022-11-27T11:43:58.759Z,4.70
2022-11-27T11:46:28.646Z,4.70
2022-11-27T11:49:18.520Z,4.60
2022-11-27T11:52:16.684Z,4.60
2022-11-27T11:54:49.603Z,4.60
2022-11-27T11:57:38.844Z,4.70
2022-11-27T12:00:10.884Z,4.50
2022-11-27T12:02:45.869Z,4.50
2022-11-27T12:05:27.762Z,4.50
2022-11-27T12:08:22.598Z,4.50
2022-11-27T12:11:03.988Z,4.60
2022-11-27T12:13:33.479Z,4.60
2022-11-27T12:16:07.642Z,4.70
2022-11-27T12:19:01.569Z,4.60
2022-11-27T12:21:53.659Z,4.50
2022-11-27T12:24:44.729Z,4.50
2022-11-27T12:27:29.149Z,4.50
2022-11-27T12:30:12.198Z,4.50
2022-11-27T12:33:12.348Z,4.50
2022-11-27T12:35:48.210Z,4.50
2022-11-27T12:38:28.076Z,4.60
2022-11-27T12:41:13.735Z,4.70
2022-11-27T12:43:52.067Z,4.80
2022-11-27T12:46:24.150Z,4.80
2022-11-27T12:49:00.166Z,4.90
2022-11-27T12:51:34.476Z,5.00
2022-11-27T12:54:05.898Z,4.90
2022-11-27T12:56:36.648Z,4.90
2022-11-27T12:59:19.166Z,5.00
2022-11-27T13:01:50.122Z,5.10
2022-11-27T13:04:20.105Z,5.10
2022-11-27T13:07:10.994Z,5.00
2022-11-27T13:09:57.012Z,4.90
2022-11-27T13:12:32.910Z,4.80
2022-11-27T13:15:05.706Z,4.90
2022-11-27T13:17:41.283Z,4.80
2022-11-27T13:20:19.661Z,4.90
2022-11-27T13:22:46.343Z,4.90
2022-11-27T13:25:18.367Z,5.20
2022-11-27T13:27:46.664Z,5.10
2022-11-27T13:30:22.342Z,5.20
2022-11-27T13:32:51.290Z,5.10
2022-11-27T13:35:39.983Z,5.10
2022-11-27T13:38:22.341Z,5.10
2022-11-27T13:40:56.008Z,5.10
2022-11-27T13:43:32.559Z,5.10
2022-11-27T13:46:11.971Z,5.00
2022-11-27T13:48:42.356Z,5.00
2022-11-27T13:51:10.124Z,5.10
2022-11-27T13:53:38.702Z,5.10
2022-11-27T13:56:06.049Z,5.10
2022-11-27T13:58:39.383Z,5.10
2022-11-27T14:01:16.640Z,5.20
2022-11-27T14:03:43.459Z,5.20
2022-11-27T14:06:20.846Z,5.20
2022-11-27T14:09:01.491Z,5.10
2022-11-27T14:11:42.994Z,5.20
2022-11-27T14:14:21.379Z,5.20
2022-11-27T14:17:04.913Z,5.20
2022-11-27T14:19:34.729Z,5.20
2022-11-27T14:22:02.305Z,5.20
2022-11-27T14:24:41.612Z,5.10
2022-11-27T14:27:18.381Z,5.20
2022-11-27T14:29:47.275Z,5.20
2022-11-27T14:32:17.563Z,5.20
2022-11-27T14:34:44.469Z,5.30
2022-11-27T14:37:29.930Z,5.30
2022-11-27T14:39:56.676Z,5.30
2022-11-27T14:42:29.499Z,5.20
2022-11-27T14:45:05.263Z,5.20
2022-11-27T14:47:31.957Z,5.30
2022-11-27T14:49:58.641Z,5.30
2022-11-27T14:52:25.401Z,5.30
2022-11-27T14:54:52.148Z,5.30
2022-11-27T14:57:28.540Z,5.30
2022-11-27T15:00:14.982Z,5.30
2022-11-27T15:02:41.896Z,5.40
2022-11-27T15:05:20.053Z,5.20
2022-11-27T15:07:53.197Z,5.30
2022-11-27T15:10:35.928Z,5.30
2022-11-27T15:13:03.267Z,5.30
2022-11-27T15:15:39.836Z,5.30
2022-11-27T15:18:09.193Z,5.30
2022-11-27T15:20:43.537Z,5.40
2022-11-27T15:23:32.206Z,5.30
2022-11-27T15:26:02.133Z,5.30
2022-11-27T15:28:37.023Z,5.40
2022-11-27T15:31:25.027Z,5.30
2022-11-27T15:34:01.781Z,5.20
2022-11-27T15:36:34.843Z,5.40
2022-11-27T15:39:24.758Z,5.00
2022-11-27T15:42:01.653Z,5.00
2022-11-27T15:44:32.831Z,4.90
2022-11-27T15:47:03.237Z,4.90
2022-11-27T15:49:30.044Z,5.00
2022-11-27T15:51:57.049Z,5.10
2022-11-27T15:54:24.239Z,5.00
2022-11-27T15:56:51.114Z,5.10
2022-11-27T15:59:20.481Z,5.30
2022-11-27T16:01:52.737Z,5.10
2022-11-27T16:04:19.576Z,5.20
2022-11-27T16:06:46.352Z,5.20
2022-11-27T16:09:13.177Z,5.20
2022-11-27T16:11:40.002Z,5.20
2022-11-27T16:14:08.919Z,5.20
2022-11-27T16:16:35.823Z,5.20
2022-11-27T16:19:03.951Z,5.20
2022-11-27T16:21:35.607Z,5.20
2022-11-27T16:24:04.156Z,5.30
2022-11-27T16:26:31.109Z,5.30
2022-11-27T16:28:58.100Z,5.60
2022-11-27T16:31:27.154Z,5.30
2022-11-27T16:33:54.102Z,5.50
2022-11-27T16:36:22.891Z,5.30
2022-11-27T16:38:51.221Z,5.20
2022-11-27T16:41:18.480Z,5.30
2022-11-27T16:43:49.115Z,5.20
2022-11-27T16:46:18.179Z,5.10
2022-11-27T16:48:45.210Z,5.20
2022-11-27T16:51:19.639Z,5.10
2022-11-27T16:53:47.429Z,5.00
2022-11-27T16:56:16.031Z,5.00
2022-11-27T16:58:45.916Z,5.00
2022-11-27T17:01:17.875Z,4.80
2022-11-27T17:03:44.668Z,4.90
2022-11-27T17:06:15.446Z,4.90
2022-11-27T17:08:44.382Z,5.00
2022-11-27T17:11:18.107Z,5.00
2022-11-27T17:13:45.647Z,5.00
2022-11-27T17:16:12.424Z,5.00
2022-11-27T17:18:40.071Z,5.10
2022-11-27T17:21:29.239Z,5.10
2022-11-27T17:24:03.862Z,5.10
2022-11-27T17:26:42.236Z,5.10
2022-11-27T17:29:10.199Z,5.00
2022-11-27T17:31:42.003Z,5.10
2022-11-27T17:34:11.104Z,5.00
2022-11-27T17:36:42.141Z,5.10
2022-11-27T17:39:09.819Z,5.00
2022-11-27T17:41:36.665Z,5.10
2022-11-27T17:44:06.380Z,5.10
2022-11-27T17:46:36.959Z,5.10
2022-11-27T17:49:07.191Z,5.10
2022-11-27T17:51:38.552Z,5.10
2022-11-27T17:54:07.875Z,5.10
2022-11-27T17:56:34.707Z,5.00
2022-11-27T17:59:01.518Z,5.10
2022-11-27T18:01:29.376Z,5.00
2022-11-27T18:03:57.191Z,5.00
2022-11-27T18:06:29.977Z,5.00
2022-11-27T18:08:58.136Z,5.00
2022-11-27T18:11:26.662Z,5.00
2022-11-27T18:13:53.468Z,5.00
2022-11-27T18:16:25.318Z,5.00
2022-11-27T18:18:52.276Z,5.00
2022-11-27T18:21:20.016Z,5.00
2022-11-27T18:24:21.329Z,5.10
2022-11-27T18:27:00.393Z,4.90
2022-11-27T18:29:21.298Z,4.90
2022-11-27T18:31:51.114Z,4.90
2022-11-27T18:34:18.386Z,4.90
2022-11-27T18:36:45.946Z,4.90
2022-11-27T18:39:15.885Z,4.70
2022-11-27T18:41:45.241Z,4.70
2022-11-27T18:44:12.035Z,4.70
2022-11-27T18:46:41.490Z,4.80
2022-11-27T18:49:08.263Z,4.80
2022-11-27T18:51:35.018Z,4.90
2022-11-27T18:54:01.717Z,4.90
2022-11-27T18:56:34.007Z,4.90
2022-11-27T18:59:07.038Z,4.80
2022-11-27T19:01:39.917Z,4.90
2022-11-27T19:04:11.206Z,4.80
2022-11-27T19:06:38.822Z,4.90
2022-11-27T19:09:05.693Z,4.90
2022-11-27T19:11:33.996Z,4.90
2022-11-27T19:14:00.993Z,5.00
2022-11-27T19:16:42.023Z,5.00
2022-11-27T19:19:49.314Z,5.00
2022-11-27T19:21:58.650Z,5.00
2022-11-27T19:24:25.370Z,5.00
2022-11-27T19:26:52.167Z,5.00
2022-11-27T19:29:21.199Z,5.00
2022-11-27T19:31:48.128Z,5.00
2022-11-27T19:34:14.946Z,5.00
2022-11-27T19:36:41.689Z,5.00
2022-11-27T19:39:14.103Z,5.00
2022-11-27T19:41:41.478Z,5.00
2022-11-27T19:44:08.247Z,5.00
2022-11-27T19:46:36.335Z,5.10
2022-11-27T19:49:04.961Z,5.10
2022-11-27T19:51:33.287Z,5.10
2022-11-27T19:54:08.399Z,5.10
2022-11-27T19:56:40.112Z,5.10
2022-11-27T19:59:07.221Z,5.00
2022-11-27T20:01:33.998Z,5.00
2022-11-27T20:04:02.060Z,5.00
2022-11-27T20:06:31.283Z,5.10
2022-11-27T20:09:04.089Z,5.10
2022-11-27T20:11:35.423Z,5.20
2022-11-27T20:14:04.143Z,5.10
2022-11-27T20:16:31.317Z,5.10
2022-11-27T20:18:58.159Z,5.20
2022-11-27T20:21:34.026Z,5.10
2022-11-27T20:24:05.887Z,5.10
2022-11-27T20:26:41.270Z,5.10
2022-11-27T20:29:11.860Z,5.10
2022-11-27T20:31:40.242Z,5.20
2022-11-27T20:34:10.857Z,5.10
2022-11-27T20:36:38.942Z,4.90
2022-11-27T20:39:08.285Z,5.00
2022-11-27T20:41:35.005Z,4.80
2022-11-27T20:44:04.841Z,4.60
2022-11-27T20:46:34.141Z,4.60
2022-11-27T20:49:03.240Z,4.60
2022-11-27T20:51:33.334Z,4.70
2022-11-27T20:54:01.728Z,4.70
2022-11-27T20:56:29.143Z,4.70
2022-11-27T20:59:00.806Z,4.80
2022-11-27T21:01:32.146Z,4.80
2022-11-27T21:04:00.394Z,4.80
2022-11-27T21:06:28.881Z,4.70
2022-11-27T21:08:55.716Z,4.70
2022-11-27T21:11:25.278Z,4.70
2022-11-27T21:13:56.249Z,4.90
2022-11-27T21:16:23.899Z,4.80
2022-11-27T21:18:54.540Z,4.70
2022-11-27T21:21:21.310Z,4.60
2022-11-27T21:23:50.243Z,4.70
2022-11-27T21:26:17.123Z,4.70
2022-11-27T21:28:44.152Z,4.70
2022-11-27T21:31:18.108Z,4.70
2022-11-27T21:33:58.113Z,4.70
2022-11-27T21:36:29.366Z,4.80
2022-11-27T21:38:57.518Z,4.80
2022-11-27T21:41:26.588Z,4.90
2022-11-27T21:43:57.923Z,4.80
2022-11-27T21:46:25.023Z,4.80
2022-11-27T21:48:52.935Z,4.90
2022-11-27T21:51:23.104Z,4.90
2022-11-27T21:53:51.456Z,4.90
2022-11-27T21:56:19.302Z,4.90
2022-11-27T21:58:46.317Z,4.90
2022-11-27T22:01:15.610Z,5.00
2022-11-27T22:03:43.124Z,5.00
2022-11-27T22:06:14.661Z,4.90
2022-11-27T22:08:42.527Z,5.00
2022-11-27T22:11:10.443Z,5.00
2022-11-27T22:13:37.158Z,5.00
2022-11-27T22:16:20.375Z,5.00
2022-11-27T22:18:49.553Z,5.00
2022-11-27T22:21:16.546Z,5.00
2022-11-27T22:23:43.247Z,5.00
2022-11-27T22:26:14.253Z,5.00
2022-11-27T22:28:41.164Z,5.00
2022-11-27T22:31:18.689Z,5.00
2022-11-27T22:33:45.847Z,5.00
2022-11-27T22:36:19.303Z,5.00
2022-11-27T22:38:46.711Z,4.90
2022-11-27T22:41:13.614Z,5.00
2022-11-27T22:43:40.464Z,4.90
2022-11-27T22:46:12.485Z,4.90
2022-11-27T22:48:39.231Z,4.90
2022-11-27T22:51:06.211Z,4.90
2022-11-27T22:53:35.411Z,4.90
2022-11-27T22:56:11.976Z,5.00
2022-11-27T22:58:42.028Z,4.90
2022-11-27T23:01:29.134Z,4.90
2022-11-27T23:03:55.937Z,4.80
2022-11-27T23:06:25.400Z,4.90
2022-11-27T23:08:54.645Z,4.80
2022-11-27T23:11:24.014Z,4.80
2022-11-27T23:13:51.654Z,4.70
2022-11-27T23:16:18.439Z,4.70
2022-11-27T23:18:45.478Z,4.70
2022-11-27T23:21:15.757Z,4.80
2022-11-27T23:23:45.479Z,4.80
2022-11-27T23:26:19.359Z,4.80
2022-11-27T23:28:49.319Z,4.80
2022-11-27T23:31:31.051Z,4.90
2022-11-27T23:33:58.902Z,4.90
2022-11-27T23:36:25.848Z,4.90
2022-11-27T23:38:52.603Z,4.90
2022-11-27T23:41:21.192Z,4.90
2022-11-27T23:43:50.371Z,4.90
2022-11-27T23:46:18.197Z,4.80
2022-11-27T23:48:45.045Z,4.80
2022-11-27T23:51:16.508Z,4.80
2022-11-27T23:53:45.431Z,4.80
2022-11-27T23:56:14.182Z,4.80
2022-11-27T23:58:46.914Z,4.80
